AirNav   Air Wisconsin pilot careers
 
 1507 users online  

I71 Morgan County Airport
Mc Connelsville, Ohio, USA

GOING TO MC CONNELSVILLE?


FAA INFORMATION EFFECTIVE 09 NOVEMBER 2017

Location

FAA Identifier: I71
Lat/Long: 39-39-15.2580N / 081-48-11.4810W
39-39.254300N / 081-48.191350W
39.6542383 / -81.8031892
(estimated)
Elevation: 1000 ft. / 305 m (estimated)
Variation: 06W (1985)
From city: 3 miles E of MC CONNELSVILLE, OH
Time zone: UTC -5 (UTC -4 during Daylight Saving Time)
Zip code: 43756

Airport Operations

Airport use: Open to the public
Activation date: 08/1967
Control tower: no
ARTCC: INDIANAPOLIS CENTER
FSS: CLEVELAND FLIGHT SERVICE STATION
NOTAMs facility: CLE (NOTAM-D service available)
Attendance: UNATNDD
Pattern altitude: 1800 ft. MSL
Wind indicator: lighted
Segmented circle: no
Lights: ACTVT MIRL RY 12/30 - CTAF.
Beacon: white-green (lighted land airport)
Operates sunset to sunrise.

Airport Communications

CTAF/UNICOM: 122.8
WX ASOS at ZZV (18 nm N): 111.4 (740-453-8139)

Nearby radio navigation aids

VOR radial/distance  VOR name  Freq  Var
ZZVr173/17.7ZANESVILLE VOR/DME111.4006W
JPUr306/23.6PARKERSBURG VOR/DME108.6003W
CTWr211/37.6NEWCOMERSTOWN VOR/DME111.8007W

 
NDB name  Hdg/Dist  Freq  Var  ID
UNIVERSITY038/28.125006WUGS ..- --. ...
NEWARK132/37.752406WHEH .... . ....

Airport Services

Fuel available: 100LL
FOR FUEL USE PHONE IN ADMIN BLDG AND REFER TO LIST ABOVE PHONE.
Parking: hangars and tiedowns
Bottled oxygen: NONE
Bulk oxygen: NONE

Runway Information

Runway 12/30

Dimensions: 3500 x 65 ft. / 1067 x 20 m
Surface: asphalt, in good condition
Weight bearing capacity: 
Single wheel: 12.0
Runway edge lights: medium intensity
RUNWAY 12  RUNWAY 30
Latitude: 39-39.391667N39-39.116500N
Longitude: 081-48.519000W081-47.863500W
Elevation: 1000.0 ft.1000.0 ft.
Gradient: 1.7%1.7%
Traffic pattern: leftleft
Displaced threshold: 350 ft.no
Markings: basic, in good conditionbasic, in good condition
Runway end identifier lights: nono
Obstructions: 25 ft. road, lighted, 252 ft. from runway, 130 ft. left of centerline, 2:1 slope to clear
RWY 12 +12 FT TERRAIN 0 FT FROM RY END 125 FT LEFT. +10FT ROAD 0FT TO 200FT FROM RWY END 58FT RT
10 ft. road, 201 ft. from runway, 125 ft. right of centerline
RWY 30 +7 FT TERRAIN 0 FT FM RY END 125 FT RIGHT

Airport Ownership and Management from official FAA records

Ownership: Publicly-owned
Owner: MORGAN COUNTY AIRPORT AUTH
750 RICHARDS RD
MC CONNELSVILLE, OH 43756
Phone (740) 962-5007
Manager: ROBERT N. RICHMOND
4455 W STATE RT 37
MALTA, OH 43758
Phone 740-962-3431
PHONE IN ADMIN BLDG. EMERGENCY PHONE 740-962-3333.

Airport Operational Statistics

Aircraft based on the field: 5
Single engine airplanes: 4
Helicopters: 1
    
Aircraft operations: avg 108/week *
69% local general aviation
28% transient general aviation
2% air taxi
<1% military
* for 12-month period ending 02 October 2015

Instrument Procedures

There are no published instrument procedures at I71.

Some nearby airports with instrument procedures:

I10 - Noble County Airport (15 nm NE)
KZZV - Zanesville Municipal Airport (18 nm N)
I86 - Perry County Airport (18 nm W)
KCDI - Cambridge Municipal Airport (22 nm NE)
KPKB - Mid-Ohio Valley Regional Airport (25 nm SE)
 
Loc | Ops | Rwys | IFR | FBO | Links
Com | Nav | Svcs | Stats | Notes


 
Area around I71 (Morgan County Airport)
 
Road maps at: MapQuest Bing Google
 
Aerial photo
WARNING: Photo may not be current or correct
Aerial photo of I71 (Morgan County Airport)
Photo taken 07-Nov-2010
looking northwest.

Do you have a better or more recent aerial photo of Morgan County Airport that you would like to share? If so, please send us your photo.

 
Sectional chart

 
Airport distance calculator
Flying to Morgan County Airport? Find the distance to fly.

From to I71

Sunrise and sunset
Times for 21-Nov-2017
 Local
(UTC-5)
 Zulu
(UTC)
Morning civil twilight06:5011:50
Sunrise07:1912:19
Sunset17:0722:07
Evening civil twilight17:3622:36

Current date and time
Zulu (UTC)  21-Nov-2017 16:27:52
Local (UTC-5)  21-Nov-2017 11:27:52
 
METAR
KZZV 
18nm N 
211553Z AUTO 22012G21KT 10SM CLR 09/M01 A2996 RMK AO2 SLP151 T00891011
KCDI 
22nm NE 
211604Z AUTO 21016G22KT 10SM CLR 11/00 A2997 RMK AO2 T01101002
KPKB 
26nm SE 
211553Z 22013G31KT 10SM CLR 11/M02 A3003 RMK AO2 PK WND 21031/1544 SLP173 T01111017
KUNI 
33nm SW 
211615Z AUTO 21010G19KT 10SM CLR 10/00 A2999 RMK AO2 T01021005
TAF
KZZV 
18nm N 
211134Z 2112/2212 19008KT P6SM SKC WS020/23040KT FM211500 21012G20KT P6SM SCT150 FM220500 29007KT P6SM VCSH BKN025
NOTAMs
Click for the latest NOTAMs
NOTAMs are issued by the DoD/FAA and will open in a separate window not controlled by AirNav.

 

 
 

FBO, Fuel Providers, and Aircraft Ground Support

  
 Business Name 
 
 Contact 
 
 Services / Description 
 
Fuel Prices
 
Comments
  
Morgan County Airport 740-559-2950
no information available

If you are affiliated with Morgan County Airport and would like to show here your services, contact info, web link, logo, and more, click here
100LL
AS $6.30 
 Updated 09-Jul-2015
 
   write
AS=Assisted/Self Service
Update Fuel Prices
 

Would you like to see your business listed on this page?

 If your business provides an interesting product or service to pilots, flight crews, aircraft, or users of the Morgan County Airport, you should consider listing it here.  To start the listing process, click on the button below
 
Add a business
 

Other Pages about Morgan County Airport

Update a link
 
Copyright © AirNav, LLC. All rights reserved. Privacy Policy  Contact